sensor_id;sensor_type;location;lat;lon;timestamp;pressure;altitude;pressure_sealevel;temperature;humidity
37020;BME280;22932;52.442;16.896;2022-10-23T02:58:11;100594.14;;;11.79;100.00
37020;BME280;22932;52.442;16.896;2022-10-23T03:00:47;100595.02;;;11.77;100.00
37020;BME280;22932;52.442;16.896;2022-10-23T03:03:21;100592.29;;;11.76;100.00
37020;BME280;22932;52.442;16.896;2022-10-23T03:05:52;100589.38;;;11.74;100.00
37020;BME280;22932;52.442;16.896;2022-10-23T03:08:23;100588.38;;;11.73;100.00
37020;BME280;22932;52.442;16.896;2022-10-23T03:10:51;100588.14;;;11.72;100.00
37020;BME280;22932;52.442;16.896;2022-10-23T03:13:20;100588.77;;;11.70;100.00
37020;BME280;22932;52.442;16.896;2022-10-23T03:15:50;100591.57;;;11.69;100.00
37020;BME280;22932;52.442;16.896;2022-10-23T03:18:19;100585.71;;;11.68;100.00
37020;BME280;22932;52.442;16.896;2022-10-23T03:20:48;100583.30;;;11.67;100.00
37020;BME280;22932;52.442;16.896;2022-10-23T03:23:17;100585.81;;;11.67;100.00
37020;BME280;22932;52.442;16.896;2022-10-23T03:25:47;100576.81;;;11.67;100.00
37020;BME280;22932;52.442;16.896;2022-10-23T03:28:16;100582.00;;;11.67;100.00
37020;BME280;22932;52.442;16.896;2022-10-23T03:30:45;100587.70;;;11.68;100.00
37020;BME280;22932;52.442;16.896;2022-10-23T03:33:14;100585.96;;;11.68;100.00
37020;BME280;22932;52.442;16.896;2022-10-23T03:35:44;100591.70;;;11.68;100.00
37020;BME280;22932;52.442;16.896;2022-10-23T03:38:13;100592.70;;;11.67;100.00
37020;BME280;22932;52.442;16.896;2022-10-23T03:40:42;100598.01;;;11.66;100.00
37020;BME280;22932;52.442;16.896;2022-10-23T03:43:12;100596.27;;;11.65;100.00
37020;BME280;22932;52.442;16.896;2022-10-23T03:45:41;100600.44;;;11.65;100.00
37020;BME280;22932;52.442;16.896;2022-10-23T03:48:10;100605.36;;;11.65;100.00
37020;BME280;22932;52.442;16.896;2022-10-23T03:50:39;100606.92;;;11.65;100.00
37020;BME280;22932;52.442;16.896;2022-10-23T03:53:09;100611.69;;;11.65;100.00
37020;BME280;22932;52.442;16.896;2022-10-23T03:55:38;100612.13;;;11.64;100.00
37020;BME280;22932;52.442;16.896;2022-10-23T03:58:07;100613.52;;;11.62;100.00
37020;BME280;22932;52.442;16.896;2022-10-23T04:00:36;100609.66;;;11.61;100.00
37020;BME280;22932;52.442;16.896;2022-10-23T04:03:05;100609.38;;;11.60;100.00
37020;BME280;22932;52.442;16.896;2022-10-23T04:05:35;100610.28;;;11.60;100.00
37020;BME280;22932;52.442;16.896;2022-10-23T04:08:04;100610.94;;;11.61;100.00
37020;BME280;22932;52.442;16.896;2022-10-23T04:10:34;100609.70;;;11.61;100.00
37020;BME280;22932;52.442;16.896;2022-10-23T04:13:03;100606.23;;;11.61;100.00
37020;BME280;22932;52.442;16.896;2022-10-23T04:15:32;100608.70;;;11.62;100.00
37020;BME280;22932;52.442;16.896;2022-10-23T04:18:01;100605.86;;;11.61;100.00
37020;BME280;22932;52.442;16.896;2022-10-23T04:20:31;100611.21;;;11.62;100.00
37020;BME280;22932;52.442;16.896;2022-10-23T04:23:00;100606.39;;;11.62;100.00
37020;BME280;22932;52.442;16.896;2022-10-23T04:25:29;100611.33;;;11.60;100.00
37020;BME280;22932;52.442;16.896;2022-10-23T04:27:59;100609.48;;;11.59;100.00
37020;BME280;22932;52.442;16.896;2022-10-23T04:30:28;100612.75;;;11.59;100.00
37020;BME280;22932;52.442;16.896;2022-10-23T04:32:57;100610.55;;;11.59;100.00
37020;BME280;22932;52.442;16.896;2022-10-23T04:35:26;100604.81;;;11.61;100.00
37020;BME280;22932;52.442;16.896;2022-10-23T04:37:55;100604.94;;;11.62;100.00
37020;BME280;22932;52.442;16.896;2022-10-23T04:40:25;100599.73;;;11.63;100.00
37020;BME280;22932;52.442;16.896;2022-10-23T04:42:54;100603.06;;;11.64;100.00
37020;BME280;22932;52.442;16.896;2022-10-23T04:45:23;100607.04;;;11.66;100.00
37020;BME280;22932;52.442;16.896;2022-10-23T04:47:52;100605.16;;;11.67;100.00
37020;BME280;22932;52.442;16.896;2022-10-23T04:50:23;100615.70;;;11.68;100.00
37020;BME280;22932;52.442;16.896;2022-10-23T04:52:56;100622.21;;;11.69;100.00
37020;BME280;22932;52.442;16.896;2022-10-23T04:55:25;100622.73;;;11.70;100.00
37020;BME280;22932;52.442;16.896;2022-10-23T04:57:54;100618.46;;;11.69;100.00
37020;BME280;22932;52.442;16.896;2022-10-23T05:00:24;100622.14;;;11.69;100.00
37020;BME280;22932;52.442;16.896;2022-10-23T05:02:53;100623.44;;;11.70;100.00
37020;BME280;22932;52.442;16.896;2022-10-23T05:05:22;100621.20;;;11.69;100.00
37020;BME280;22932;52.442;16.896;2022-10-23T05:07:51;100631.99;;;11.69;100.00
37020;BME280;22932;52.442;16.896;2022-10-23T05:10:21;100631.79;;;11.69;100.00
37020;BME280;22932;52.442;16.896;2022-10-23T05:12:50;100635.69;;;11.70;100.00
37020;BME280;22932;52.442;16.896;2022-10-23T05:15:19;100635.85;;;11.70;100.00
37020;BME280;22932;52.442;16.896;2022-10-23T05:17:50;100635.47;;;11.71;100.00
37020;BME280;22932;52.442;16.896;2022-10-23T05:20:24;100635.15;;;11.70;100.00
37020;BME280;22932;52.442;16.896;2022-10-23T05:22:55;100634.83;;;11.69;100.00
37020;BME280;22932;52.442;16.896;2022-10-23T05:25:27;100637.89;;;11.68;100.00
37020;BME280;22932;52.442;16.896;2022-10-23T05:27:56;100637.95;;;11.67;100.00
37020;BME280;22932;52.442;16.896;2022-10-23T05:30:25;100638.80;;;11.68;100.00
37020;BME280;22932;52.442;16.896;2022-10-23T05:32:54;100637.17;;;11.68;100.00
37020;BME280;22932;52.442;16.896;2022-10-23T05:35:24;100632.97;;;11.68;100.00
37020;BME280;22932;52.442;16.896;2022-10-23T05:37:54;100632.70;;;11.69;100.00
37020;BME280;22932;52.442;16.896;2022-10-23T05:40:24;100636.90;;;11.69;100.00
37020;BME280;22932;52.442;16.896;2022-10-23T05:42:53;100640.16;;;11.67;100.00
37020;BME280;22932;52.442;16.896;2022-10-23T05:45:22;100639.68;;;11.66;100.00
37020;BME280;22932;52.442;16.896;2022-10-23T05:47:52;100639.04;;;11.65;100.00
37020;BME280;22932;52.442;16.896;2022-10-23T05:50:21;100641.25;;;11.65;100.00
37020;BME280;22932;52.442;16.896;2022-10-23T05:52:50;100643.44;;;11.68;100.00
37020;BME280;22932;52.442;16.896;2022-10-23T05:55:19;100648.00;;;11.78;100.00
37020;BME280;22932;52.442;16.896;2022-10-23T05:57:49;100644.36;;;11.86;100.00
37020;BME280;22932;52.442;16.896;2022-10-23T06:00:18;100649.56;;;11.88;100.00
37020;BME280;22932;52.442;16.896;2022-10-23T06:02:47;100649.54;;;11.89;100.00
37020;BME280;22932;52.442;16.896;2022-10-23T06:05:16;100643.31;;;11.88;100.00
37020;BME280;22932;52.442;16.896;2022-10-23T06:07:46;100644.95;;;11.85;100.00
37020;BME280;22932;52.442;16.896;2022-10-23T06:10:15;100645.48;;;11.84;100.00
37020;BME280;22932;52.442;16.896;2022-10-23T06:12:44;100643.32;;;11.84;100.00
37020;BME280;22932;52.442;16.896;2022-10-23T06:15:14;100641.48;;;11.84;100.00
37020;BME280;22932;52.442;16.896;2022-10-23T06:17:43;100639.76;;;11.85;100.00
37020;BME280;22932;52.442;16.896;2022-10-23T06:20:13;100641.03;;;11.87;100.00
37020;BME280;22932;52.442;16.896;2022-10-23T06:22:42;100638.90;;;11.88;100.00
37020;BME280;22932;52.442;16.896;2022-10-23T06:25:11;100639.89;;;11.92;100.00
37020;BME280;22932;52.442;16.896;2022-10-23T06:27:40;100642.70;;;11.95;100.00
37020;BME280;22932;52.442;16.896;2022-10-23T06:30:11;100639.08;;;11.96;100.00
37020;BME280;22932;52.442;16.896;2022-10-23T06:32:41;100641.96;;;12.00;100.00
37020;BME280;22932;52.442;16.896;2022-10-23T06:35:10;100640.47;;;12.03;100.00
37020;BME280;22932;52.442;16.896;2022-10-23T06:37:39;100641.30;;;12.05;100.00
37020;BME280;22932;52.442;16.896;2022-10-23T06:40:10;100640.88;;;12.08;100.00
37020;BME280;22932;52.442;16.896;2022-10-23T06:42:39;100644.74;;;12.11;100.00
37020;BME280;22932;52.442;16.896;2022-10-23T06:45:09;100647.08;;;12.15;100.00
37020;BME280;22932;52.442;16.896;2022-10-23T16:43:15;100496.89;;;14.81;87.79
37020;BME280;22932;52.442;16.896;2022-10-23T16:45:44;100493.55;;;14.77;87.78
37020;BME280;22932;52.442;16.896;2022-10-23T16:48:14;100496.04;;;14.74;88.17
37020;BME280;22932;52.442;16.896;2022-10-23T16:50:43;100500.56;;;14.72;88.00
37020;BME280;22932;52.442;16.896;2022-10-23T16:53:12;100502.44;;;14.70;88.14
37020;BME280;22932;52.442;16.896;2022-10-23T16:55:42;100500.52;;;14.68;88.37
37020;BME280;22932;52.442;16.896;2022-10-23T16:58:11;100500.34;;;14.66;88.32
37020;BME280;22932;52.442;16.896;2022-10-23T17:00:40;100496.20;;;14.64;88.47
37020;BME280;22932;52.442;16.896;2022-10-23T17:03:09;100496.52;;;14.61;88.46
37020;BME280;22932;52.442;16.896;2022-10-23T17:05:39;100497.37;;;14.58;88.42
37020;BME280;22932;52.442;16.896;2022-10-23T17:08:08;100492.89;;;14.56;88.57
37020;BME280;22932;52.442;16.896;2022-10-23T17:10:37;100489.15;;;14.54;88.73
37020;BME280;22932;52.442;16.896;2022-10-23T17:13:06;100482.79;;;14.50;88.79
37020;BME280;22932;52.442;16.896;2022-10-23T17:15:36;100483.04;;;14.48;88.90
37020;BME280;22932;52.442;16.896;2022-10-23T17:18:05;100480.45;;;14.45;88.96
37020;BME280;22932;52.442;16.896;2022-10-23T17:20:34;100477.95;;;14.42;89.03
37020;BME280;22932;52.442;16.896;2022-10-23T17:23:04;100483.59;;;14.41;89.15
37020;BME280;22932;52.442;16.896;2022-10-23T17:25:33;100482.80;;;14.40;89.04
37020;BME280;22932;52.442;16.896;2022-10-23T17:28:03;100484.63;;;14.39;89.20
37020;BME280;22932;52.442;16.896;2022-10-23T17:30:32;100484.67;;;14.39;89.35
37020;BME280;22932;52.442;16.896;2022-10-23T17:33:05;100487.79;;;14.39;89.20
37020;BME280;22932;52.442;16.896;2022-10-23T17:35:34;100489.60;;;14.39;89.30
37020;BME280;22932;52.442;16.896;2022-10-23T17:38:04;100489.84;;;14.38;89.25
37020;BME280;22932;52.442;16.896;2022-10-23T17:40:34;100485.90;;;14.38;89.31
37020;BME280;22932;52.442;16.896;2022-10-23T17:43:03;100481.16;;;14.37;89.29
37020;BME280;22932;52.442;16.896;2022-10-23T17:45:34;100481.97;;;14.34;89.24
37020;BME280;22932;52.442;16.896;2022-10-23T17:48:04;100486.09;;;14.31;89.38
37020;BME280;22932;52.442;16.896;2022-10-23T17:50:33;100484.90;;;14.29;89.41
37020;BME280;22932;52.442;16.896;2022-10-23T17:53:03;100486.20;;;14.26;89.45
37020;BME280;22932;52.442;16.896;2022-10-23T17:55:35;100485.69;;;14.25;89.51
37020;BME280;22932;52.442;16.896;2022-10-23T17:58:05;100488.40;;;14.23;89.60
37020;BME280;22932;52.442;16.896;2022-10-23T18:00:35;100479.05;;;14.20;89.70
37020;BME280;22932;52.442;16.896;2022-10-23T18:03:05;100480.15;;;14.18;89.83
37020;BME280;22932;52.442;16.896;2022-10-23T18:05:35;100473.48;;;14.16;89.79
37020;BME280;22932;52.442;16.896;2022-10-23T18:08:04;100469.88;;;14.15;89.95
37020;BME280;22932;52.442;16.896;2022-10-23T18:10:37;100463.75;;;14.13;89.89
37020;BME280;22932;52.442;16.896;2022-10-23T18:13:06;100459.30;;;14.10;90.01
37020;BME280;22932;52.442;16.896;2022-10-23T18:15:36;100457.48;;;14.07;89.91
37020;BME280;22932;52.442;16.896;2022-10-23T18:18:06;100453.66;;;14.02;89.88
37020;BME280;22932;52.442;16.896;2022-10-23T18:20:40;100448.20;;;13.97;89.86
37020;BME280;22932;52.442;16.896;2022-10-23T18:23:09;100440.52;;;13.92;89.82
37020;BME280;22932;52.442;16.896;2022-10-23T18:25:42;100431.14;;;13.89;90.12
37020;BME280;22932;52.442;16.896;2022-10-23T18:28:12;100429.58;;;13.87;90.16
37020;BME280;22932;52.442;16.896;2022-10-23T18:30:42;100434.48;;;13.85;90.30
37020;BME280;22932;52.442;16.896;2022-10-23T18:33:11;100436.67;;;13.84;90.57
37020;BME280;22932;52.442;16.896;2022-10-23T18:35:41;100432.50;;;13.85;90.63
37020;BME280;22932;52.442;16.896;2022-10-23T18:38:11;100426.80;;;13.85;90.85
37020;BME280;22932;52.442;16.896;2022-10-23T18:40:42;100420.61;;;13.86;91.07
37020;BME280;22932;52.442;16.896;2022-10-23T18:43:11;100417.23;;;13.85;90.94
37020;BME280;22932;52.442;16.896;2022-10-23T18:45:42;100414.21;;;13.85;91.01
37020;BME280;22932;52.442;16.896;2022-10-23T18:48:10;100407.80;;;13.84;91.15
37020;BME280;22932;52.442;16.896;2022-10-23T18:50:39;100409.77;;;13.82;91.10
37020;BME280;22932;52.442;16.896;2022-10-23T18:53:09;100403.11;;;13.80;91.20
37020;BME280;22932;52.442;16.896;2022-10-23T18:55:44;100392.83;;;13.78;91.44
37020;BME280;22932;52.442;16.896;2022-10-23T18:58:16;100390.16;;;13.75;91.42
37020;BME280;22932;52.442;16.896;2022-10-23T19:00:46;100392.92;;;13.73;91.57
37020;BME280;22932;52.442;16.896;2022-10-23T19:03:15;100395.00;;;13.71;91.54
37020;BME280;22932;52.442;16.896;2022-10-23T19:05:45;100387.08;;;13.69;91.73
37020;BME280;22932;52.442;16.896;2022-10-23T19:08:15;100383.88;;;13.66;92.04
37020;BME280;22932;52.442;16.896;2022-10-23T19:10:46;100377.84;;;13.64;91.73
37020;BME280;22932;52.442;16.896;2022-10-23T19:13:15;100377.65;;;13.62;92.00
37020;BME280;22932;52.442;16.896;2022-10-23T19:15:45;100374.77;;;13.60;92.13
37020;BME280;22932;52.442;16.896;2022-10-23T19:18:14;100376.06;;;13.58;92.08
37020;BME280;22932;52.442;16.896;2022-10-23T19:20:44;100377.23;;;13.58;92.13
37020;BME280;22932;52.442;16.896;2022-10-23T19:23:14;100368.45;;;13.57;92.25
37020;BME280;22932;52.442;16.896;2022-10-23T19:25:44;100367.20;;;13.55;92.17
37020;BME280;22932;52.442;16.896;2022-10-23T19:28:15;100368.63;;;13.54;92.48
37020;BME280;22932;52.442;16.896;2022-10-23T19:30:44;100371.77;;;13.53;92.59
37020;BME280;22932;52.442;16.896;2022-10-23T19:33:14;100374.45;;;13.51;92.76
37020;BME280;22932;52.442;16.896;2022-10-23T19:35:43;100376.23;;;13.49;92.63
37020;BME280;22932;52.442;16.896;2022-10-23T19:38:12;100380.02;;;13.48;92.84
37020;BME280;22932;52.442;16.896;2022-10-23T19:40:41;100380.36;;;13.47;92.80
37020;BME280;22932;52.442;16.896;2022-10-23T19:43:11;100372.71;;;13.45;92.87
37020;BME280;22932;52.442;16.896;2022-10-23T19:45:40;100371.89;;;13.44;92.78
37020;BME280;22932;52.442;16.896;2022-10-23T19:48:09;100375.02;;;13.44;93.00
37020;BME280;22932;52.442;16.896;2022-10-23T19:50:41;100376.88;;;13.43;92.93
37020;BME280;22932;52.442;16.896;2022-10-23T19:53:13;100379.42;;;13.43;93.20
37020;BME280;22932;52.442;16.896;2022-10-23T19:55:43;100377.67;;;13.43;93.11
37020;BME280;22932;52.442;16.896;2022-10-23T19:58:13;100369.34;;;13.41;93.08
37020;BME280;22932;52.442;16.896;2022-10-23T20:00:42;100367.36;;;13.41;93.10
37020;BME280;22932;52.442;16.896;2022-10-23T20:03:11;100364.31;;;13.41;93.11
37020;BME280;22932;52.442;16.896;2022-10-23T20:05:45;100365.02;;;13.41;93.24
37020;BME280;22932;52.442;16.896;2022-10-23T20:08:14;100367.23;;;13.41;93.37
37020;BME280;22932;52.442;16.896;2022-10-23T20:10:44;100365.89;;;13.39;93.12
37020;BME280;22932;52.442;16.896;2022-10-23T20:13:14;100366.37;;;13.39;93.16
37020;BME280;22932;52.442;16.896;2022-10-23T22:18:38;100274.27;;;12.71;93.40
37020;BME280;22932;52.442;16.896;2022-10-23T22:21:10;100259.05;;;12.66;93.17
37020;BME280;22932;52.442;16.896;2022-10-23T22:23:41;100256.80;;;12.59;93.07
37020;BME280;22932;52.442;16.896;2022-10-23T22:26:19;100261.66;;;12.56;93.22
37020;BME280;22932;52.442;16.896;2022-10-23T22:28:49;100266.76;;;12.54;93.39
37020;BME280;22932;52.442;16.896;2022-10-23T22:31:20;100271.78;;;12.52;93.54
37020;BME280;22932;52.442;16.896;2022-10-23T22:33:51;100265.36;;;12.50;93.57
37020;BME280;22932;52.442;16.896;2022-10-23T22:36:20;100271.21;;;12.48;93.63
37020;BME280;22932;52.442;16.896;2022-10-23T22:38:50;100275.14;;;12.46;93.71
37020;BME280;22932;52.442;16.896;2022-10-23T22:41:19;100279.90;;;12.44;93.78
37020;BME280;22932;52.442;16.896;2022-10-23T22:43:54;100273.75;;;12.40;93.93
37020;BME280;22932;52.442;16.896;2022-10-23T22:46:24;100273.09;;;12.38;93.92
37020;BME280;22932;52.442;16.896;2022-10-23T22:48:52;100268.12;;;12.35;94.00
37020;BME280;22932;52.442;16.896;2022-10-23T22:51:23;100269.23;;;12.35;94.39
37020;BME280;22932;52.442;16.896;2022-10-23T22:53:53;100265.94;;;12.33;94.44
37020;BME280;22932;52.442;16.896;2022-10-23T22:56:24;100258.33;;;12.32;94.40
37020;BME280;22932;52.442;16.896;2022-10-23T22:58:54;100247.30;;;12.30;94.45
37020;BME280;22932;52.442;16.896;2022-10-23T23:01:26;100239.89;;;12.30;94.54
37020;BME280;22932;52.442;16.896;2022-10-23T23:03:57;100236.07;;;12.31;94.61
37020;BME280;22932;52.442;16.896;2022-10-23T23:06:26;100232.34;;;12.30;94.68
37020;BME280;22932;52.442;16.896;2022-10-23T23:08:56;100232.33;;;12.28;94.48
37020;BME280;22932;52.442;16.896;2022-10-23T23:11:26;100235.54;;;12.29;94.61
37020;BME280;22932;52.442;16.896;2022-10-23T23:14:00;100244.13;;;12.30;94.68
37020;BME280;22932;52.442;16.896;2022-10-23T23:16:31;100247.43;;;12.29;94.66
37020;BME280;22932;52.442;16.896;2022-10-23T23:19:01;100248.34;;;12.29;94.84
37020;BME280;22932;52.442;16.896;2022-10-23T23:21:29;100242.94;;;12.29;94.59
37020;BME280;22932;52.442;16.896;2022-10-23T23:23:59;100240.45;;;12.28;94.83
37020;BME280;22932;52.442;16.896;2022-10-23T23:26:28;100235.26;;;12.28;94.71
37020;BME280;22932;52.442;16.896;2022-10-23T23:28:58;100238.17;;;12.28;94.65
37020;BME280;22932;52.442;16.896;2022-10-23T23:31:27;100241.83;;;12.27;94.69
37020;BME280;22932;52.442;16.896;2022-10-23T23:33:56;100240.08;;;12.25;94.56
37020;BME280;22932;52.442;16.896;2022-10-23T23:36:27;100235.84;;;12.24;94.70
37020;BME280;22932;52.442;16.896;2022-10-23T23:38:55;100231.20;;;12.24;94.71
37020;BME280;22932;52.442;16.896;2022-10-23T23:41:25;100224.08;;;12.23;94.62
37020;BME280;22932;52.442;16.896;2022-10-23T23:43:56;100219.63;;;12.22;94.58
37020;BME280;22932;52.442;16.896;2022-10-23T23:46:25;100209.64;;;12.21;94.55
37020;BME280;22932;52.442;16.896;2022-10-23T23:48:54;100209.31;;;12.20;94.59
37020;BME280;22932;52.442;16.896;2022-10-23T23:51:24;100206.29;;;12.20;94.40
37020;BME280;22932;52.442;16.896;2022-10-23T23:53:54;100208.13;;;12.22;94.22
37020;BME280;22932;52.442;16.896;2022-10-23T23:56:23;100214.16;;;12.22;94.16
37020;BME280;22932;52.442;16.896;2022-10-23T23:58:52;100215.19;;;12.23;94.17
